sensor_id;sensor_type;location;lat;lon;timestamp;P1;durP1;ratioP1;P2;durP2;ratioP2
40533;SDS011;26233;51.894;10.192;2023-03-02T00:01:25;4.00;;;3.30;;
40533;SDS011;26233;51.894;10.192;2023-03-02T00:03:56;3.50;;;3.20;;
40533;SDS011;26233;51.894;10.192;2023-03-02T00:06:26;3.93;;;3.30;;
40533;SDS011;26233;51.894;10.192;2023-03-02T00:08:55;3.57;;;3.27;;
40533;SDS011;26233;51.894;10.192;2023-03-02T00:11:24;3.80;;;3.30;;
40533;SDS011;26233;51.894;10.192;2023-03-02T00:13:52;3.37;;;3.07;;
40533;SDS011;26233;51.894;10.192;2023-03-02T00:16:20;3.60;;;3.30;;
40533;SDS011;26233;51.894;10.192;2023-03-02T00:18:47;3.40;;;3.00;;
40533;SDS011;26233;51.894;10.192;2023-03-02T00:21:14;3.53;;;3.10;;
40533;SDS011;26233;51.894;10.192;2023-03-02T00:23:41;3.80;;;3.40;;
40533;SDS011;26233;51.894;10.192;2023-03-02T00:26:09;3.93;;;3.50;;
40533;SDS011;26233;51.894;10.192;2023-03-02T00:28:36;4.27;;;3.23;;
40533;SDS011;26233;51.894;10.192;2023-03-02T00:31:03;3.50;;;3.00;;
40533;SDS011;26233;51.894;10.192;2023-03-02T00:33:33;3.50;;;3.20;;
40533;SDS011;26233;51.894;10.192;2023-03-02T00:36:00;3.90;;;3.50;;
40533;SDS011;26233;51.894;10.192;2023-03-02T00:38:28;3.80;;;3.50;;
40533;SDS011;26233;51.894;10.192;2023-03-02T00:40:55;3.47;;;3.10;;
40533;SDS011;26233;51.894;10.192;2023-03-02T00:43:23;3.60;;;3.30;;
40533;SDS011;26233;51.894;10.192;2023-03-02T00:45:54;3.87;;;3.37;;
40533;SDS011;26233;51.894;10.192;2023-03-02T00:48:21;3.50;;;3.10;;
40533;SDS011;26233;51.894;10.192;2023-03-02T00:50:49;3.73;;;3.13;;
40533;SDS011;26233;51.894;10.192;2023-03-02T00:53:16;3.40;;;3.10;;
40533;SDS011;26233;51.894;10.192;2023-03-02T00:55:51;3.27;;;2.80;;
40533;SDS011;26233;51.894;10.192;2023-03-02T00:58:18;3.37;;;3.07;;
40533;SDS011;26233;51.894;10.192;2023-03-02T01:00:46;6.00;;;4.80;;
40533;SDS011;26233;51.894;10.192;2023-03-02T01:03:13;4.43;;;4.03;;
40533;SDS011;26233;51.894;10.192;2023-03-02T01:05:40;4.23;;;3.83;;
40533;SDS011;26233;51.894;10.192;2023-03-02T01:08:09;3.87;;;3.33;;
40533;SDS011;26233;51.894;10.192;2023-03-02T01:10:36;4.20;;;3.50;;
40533;SDS011;26233;51.894;10.192;2023-03-02T01:13:03;5.07;;;3.93;;
40533;SDS011;26233;51.894;10.192;2023-03-02T01:15:31;4.37;;;3.97;;
40533;SDS011;26233;51.894;10.192;2023-03-02T01:17:59;3.60;;;3.30;;
40533;SDS011;26233;51.894;10.192;2023-03-02T01:20:26;4.27;;;3.87;;
40533;SDS011;26233;51.894;10.192;2023-03-02T01:22:54;4.63;;;3.83;;
40533;SDS011;26233;51.894;10.192;2023-03-02T01:25:22;4.60;;;4.20;;
40533;SDS011;26233;51.894;10.192;2023-03-02T01:27:49;4.17;;;3.73;;
40533;SDS011;26233;51.894;10.192;2023-03-02T01:30:16;4.13;;;3.40;;
40533;SDS011;26233;51.894;10.192;2023-03-02T01:32:44;4.47;;;4.07;;
40533;SDS011;26233;51.894;10.192;2023-03-02T01:35:11;3.83;;;3.43;;
40533;SDS011;26233;51.894;10.192;2023-03-02T01:37:38;4.30;;;3.83;;
40533;SDS011;26233;51.894;10.192;2023-03-02T01:40:05;4.23;;;3.80;;
40533;SDS011;26233;51.894;10.192;2023-03-02T01:42:37;4.60;;;3.73;;
40533;SDS011;26233;51.894;10.192;2023-03-02T01:48:10;4.80;;;3.90;;
40533;SDS011;26233;51.894;10.192;2023-03-02T01:50:39;3.80;;;3.40;;
40533;SDS011;26233;51.894;10.192;2023-03-02T01:53:06;4.30;;;3.90;;
40533;SDS011;26233;51.894;10.192;2023-03-02T01:55:35;3.80;;;3.33;;
40533;SDS011;26233;51.894;10.192;2023-03-02T01:58:05;4.20;;;3.80;;
40533;SDS011;26233;51.894;10.192;2023-03-02T02:00:33;4.83;;;4.33;;
40533;SDS011;26233;51.894;10.192;2023-03-02T02:03:04;4.37;;;3.90;;
40533;SDS011;26233;51.894;10.192;2023-03-02T02:05:35;5.23;;;4.37;;
40533;SDS011;26233;51.894;10.192;2023-03-02T02:08:05;3.87;;;3.47;;
40533;SDS011;26233;51.894;10.192;2023-03-02T02:10:34;4.17;;;3.77;;
40533;SDS011;26233;51.894;10.192;2023-03-02T02:13:02;4.20;;;3.63;;
40533;SDS011;26233;51.894;10.192;2023-03-02T02:15:31;4.10;;;3.70;;
40533;SDS011;26233;51.894;10.192;2023-03-02T02:17:58;3.53;;;3.23;;
40533;SDS011;26233;51.894;10.192;2023-03-02T02:20:27;3.50;;;3.13;;
40533;SDS011;26233;51.894;10.192;2023-03-02T02:23:04;3.87;;;3.57;;
40533;SDS011;26233;51.894;10.192;2023-03-02T02:25:50;4.07;;;3.67;;
40533;SDS011;26233;51.894;10.192;2023-03-02T02:28:32;3.50;;;3.20;;
40533;SDS011;26233;51.894;10.192;2023-03-02T02:31:06;4.17;;;3.73;;
40533;SDS011;26233;51.894;10.192;2023-03-02T02:33:40;3.70;;;3.40;;
40533;SDS011;26233;51.894;10.192;2023-03-02T02:36:12;3.60;;;3.30;;
40533;SDS011;26233;51.894;10.192;2023-03-02T02:38:45;4.30;;;3.83;;
40533;SDS011;26233;51.894;10.192;2023-03-02T02:41:16;4.00;;;3.60;;
40533;SDS011;26233;51.894;10.192;2023-03-02T02:43:47;4.20;;;3.73;;
40533;SDS011;26233;51.894;10.192;2023-03-02T02:46:14;4.73;;;4.00;;
40533;SDS011;26233;51.894;10.192;2023-03-02T02:48:42;4.63;;;4.00;;
40533;SDS011;26233;51.894;10.192;2023-03-02T02:51:09;4.53;;;4.07;;
40533;SDS011;26233;51.894;10.192;2023-03-02T02:53:45;4.20;;;3.80;;
40533;SDS011;26233;51.894;10.192;2023-03-02T02:56:16;4.37;;;3.97;;
40533;SDS011;26233;51.894;10.192;2023-03-02T02:58:44;4.27;;;3.87;;
40533;SDS011;26233;51.894;10.192;2023-03-02T03:01:15;4.20;;;3.80;;
40533;SDS011;26233;51.894;10.192;2023-03-02T03:03:50;5.43;;;4.50;;
40533;SDS011;26233;51.894;10.192;2023-03-02T03:06:23;5.77;;;4.20;;
40533;SDS011;26233;51.894;10.192;2023-03-02T03:08:57;4.50;;;4.10;;
40533;SDS011;26233;51.894;10.192;2023-03-02T03:11:28;4.63;;;4.07;;
40533;SDS011;26233;51.894;10.192;2023-03-02T03:13:59;4.33;;;3.70;;
40533;SDS011;26233;51.894;10.192;2023-03-02T03:16:31;4.83;;;4.03;;
40533;SDS011;26233;51.894;10.192;2023-03-02T03:19:01;4.93;;;4.43;;
40533;SDS011;26233;51.894;10.192;2023-03-02T03:21:33;4.77;;;4.17;;
40533;SDS011;26233;51.894;10.192;2023-03-02T03:24:01;4.57;;;3.70;;
40533;SDS011;26233;51.894;10.192;2023-03-02T03:26:29;5.40;;;4.30;;
40533;SDS011;26233;51.894;10.192;2023-03-02T03:28:56;3.97;;;3.60;;
40533;SDS011;26233;51.894;10.192;2023-03-02T03:31:24;4.40;;;3.67;;
40533;SDS011;26233;51.894;10.192;2023-03-02T03:33:52;5.03;;;3.83;;
40533;SDS011;26233;51.894;10.192;2023-03-02T03:36:20;4.20;;;3.80;;
40533;SDS011;26233;51.894;10.192;2023-03-02T03:38:48;4.67;;;4.17;;
40533;SDS011;26233;51.894;10.192;2023-03-02T03:41:15;4.40;;;4.00;;
40533;SDS011;26233;51.894;10.192;2023-03-02T03:43:43;4.60;;;3.80;;
40533;SDS011;26233;51.894;10.192;2023-03-02T03:46:10;4.23;;;3.70;;
40533;SDS011;26233;51.894;10.192;2023-03-02T03:48:37;4.60;;;3.90;;
40533;SDS011;26233;51.894;10.192;2023-03-02T03:51:04;4.20;;;3.80;;
40533;SDS011;26233;51.894;10.192;2023-03-02T03:53:32;5.93;;;4.50;;
40533;SDS011;26233;51.894;10.192;2023-03-02T03:55:59;4.40;;;4.00;;
40533;SDS011;26233;51.894;10.192;2023-03-02T03:58:28;4.40;;;3.70;;
40533;SDS011;26233;51.894;10.192;2023-03-02T04:00:57;4.27;;;3.87;;
40533;SDS011;26233;51.894;10.192;2023-03-02T04:03:24;4.90;;;4.00;;
40533;SDS011;26233;51.894;10.192;2023-03-02T04:05:52;4.23;;;3.83;;
40533;SDS011;26233;51.894;10.192;2023-03-02T04:08:19;4.13;;;3.73;;
40533;SDS011;26233;51.894;10.192;2023-03-02T04:10:46;4.40;;;4.00;;
40533;SDS011;26233;51.894;10.192;2023-03-02T04:13:13;4.23;;;3.83;;
40533;SDS011;26233;51.894;10.192;2023-03-02T04:15:41;4.97;;;4.47;;
40533;SDS011;26233;51.894;10.192;2023-03-02T04:18:09;4.80;;;4.20;;
40533;SDS011;26233;51.894;10.192;2023-03-02T04:20:36;4.17;;;3.77;;
40533;SDS011;26233;51.894;10.192;2023-03-02T04:23:03;4.77;;;3.70;;
40533;SDS011;26233;51.894;10.192;2023-03-02T04:25:30;5.40;;;4.03;;
40533;SDS011;26233;51.894;10.192;2023-03-02T04:27:57;4.30;;;3.90;;
40533;SDS011;26233;51.894;10.192;2023-03-02T04:30:25;5.37;;;4.10;;
40533;SDS011;26233;51.894;10.192;2023-03-02T04:32:52;4.43;;;3.67;;
40533;SDS011;26233;51.894;10.192;2023-03-02T04:35:24;5.33;;;4.03;;
40533;SDS011;26233;51.894;10.192;2023-03-02T04:37:51;4.83;;;3.90;;
40533;SDS011;26233;51.894;10.192;2023-03-02T04:40:18;5.30;;;3.77;;
40533;SDS011;26233;51.894;10.192;2023-03-02T04:42:45;5.27;;;4.17;;
40533;SDS011;26233;51.894;10.192;2023-03-02T04:45:13;4.20;;;3.80;;
40533;SDS011;26233;51.894;10.192;2023-03-02T04:47:40;4.30;;;3.67;;
40533;SDS011;26233;51.894;10.192;2023-03-02T04:50:08;4.60;;;3.70;;
40533;SDS011;26233;51.894;10.192;2023-03-02T04:52:39;4.83;;;4.20;;
40533;SDS011;26233;51.894;10.192;2023-03-02T04:55:06;5.17;;;4.13;;
40533;SDS011;26233;51.894;10.192;2023-03-02T04:57:35;4.27;;;3.77;;
40533;SDS011;26233;51.894;10.192;2023-03-02T05:00:02;3.90;;;3.50;;
40533;SDS011;26233;51.894;10.192;2023-03-02T05:02:33;4.33;;;3.80;;
40533;SDS011;26233;51.894;10.192;2023-03-02T05:05:00;4.57;;;3.57;;
40533;SDS011;26233;51.894;10.192;2023-03-02T05:07:28;4.17;;;3.77;;
40533;SDS011;26233;51.894;10.192;2023-03-02T05:09:56;5.10;;;4.40;;
40533;SDS011;26233;51.894;10.192;2023-03-02T05:12:23;4.60;;;3.97;;
40533;SDS011;26233;51.894;10.192;2023-03-02T05:14:50;4.17;;;3.77;;
40533;SDS011;26233;51.894;10.192;2023-03-02T05:17:17;4.67;;;4.10;;
40533;SDS011;26233;51.894;10.192;2023-03-02T05:19:44;5.57;;;4.03;;
40533;SDS011;26233;51.894;10.192;2023-03-02T05:22:11;4.20;;;3.80;;
40533;SDS011;26233;51.894;10.192;2023-03-02T05:24:38;4.50;;;3.53;;
40533;SDS011;26233;51.894;10.192;2023-03-02T05:27:06;4.13;;;3.77;;
40533;SDS011;26233;51.894;10.192;2023-03-02T05:29:33;4.00;;;3.60;;
40533;SDS011;26233;51.894;10.192;2023-03-02T05:32:00;4.13;;;3.73;;
40533;SDS011;26233;51.894;10.192;2023-03-02T05:34:28;4.50;;;3.73;;
40533;SDS011;26233;51.894;10.192;2023-03-02T05:36:54;4.23;;;3.83;;
40533;SDS011;26233;51.894;10.192;2023-03-02T05:39:22;4.33;;;3.93;;
40533;SDS011;26233;51.894;10.192;2023-03-02T05:41:49;3.77;;;3.40;;
40533;SDS011;26233;51.894;10.192;2023-03-02T05:44:17;3.80;;;3.40;;
40533;SDS011;26233;51.894;10.192;2023-03-02T05:46:44;4.47;;;4.03;;
40533;SDS011;26233;51.894;10.192;2023-03-02T05:49:11;4.50;;;4.03;;
40533;SDS011;26233;51.894;10.192;2023-03-02T05:51:38;4.70;;;4.20;;
40533;SDS011;26233;51.894;10.192;2023-03-02T05:54:05;4.90;;;3.90;;
40533;SDS011;26233;51.894;10.192;2023-03-02T05:56:32;4.00;;;3.60;;
40533;SDS011;26233;51.894;10.192;2023-03-02T05:58:59;4.67;;;4.17;;
40533;SDS011;26233;51.894;10.192;2023-03-02T06:01:28;4.53;;;4.13;;
40533;SDS011;26233;51.894;10.192;2023-03-02T06:03:55;4.63;;;4.23;;
40533;SDS011;26233;51.894;10.192;2023-03-02T06:06:22;5.70;;;4.97;;
40533;SDS011;26233;51.894;10.192;2023-03-02T06:08:49;4.97;;;4.27;;
40533;SDS011;26233;51.894;10.192;2023-03-02T06:11:16;5.00;;;4.50;;
40533;SDS011;26233;51.894;10.192;2023-03-02T06:13:43;5.33;;;4.63;;
40533;SDS011;26233;51.894;10.192;2023-03-02T06:16:10;5.13;;;4.63;;
40533;SDS011;26233;51.894;10.192;2023-03-02T06:18:38;4.83;;;4.33;;
40533;SDS011;26233;51.894;10.192;2023-03-02T06:21:05;7.07;;;4.83;;
40533;SDS011;26233;51.894;10.192;2023-03-02T06:23:33;4.97;;;4.50;;
40533;SDS011;26233;51.894;10.192;2023-03-02T06:26:00;5.77;;;4.93;;
40533;SDS011;26233;51.894;10.192;2023-03-02T06:28:33;5.43;;;4.90;;
40533;SDS011;26233;51.894;10.192;2023-03-02T06:31:00;5.17;;;4.67;;
40533;SDS011;26233;51.894;10.192;2023-03-02T06:33:27;5.63;;;4.90;;
40533;SDS011;26233;51.894;10.192;2023-03-02T06:35:56;5.57;;;4.77;;
40533;SDS011;26233;51.894;10.192;2023-03-02T06:38:23;5.80;;;4.73;;
40533;SDS011;26233;51.894;10.192;2023-03-02T06:40:50;5.77;;;5.00;;
40533;SDS011;26233;51.894;10.192;2023-03-02T06:43:17;5.13;;;4.63;;
40533;SDS011;26233;51.894;10.192;2023-03-02T06:45:44;6.27;;;4.80;;
40533;SDS011;26233;51.894;10.192;2023-03-02T06:48:11;5.73;;;5.10;;
40533;SDS011;26233;51.894;10.192;2023-03-02T06:50:38;6.03;;;5.43;;
40533;SDS011;26233;51.894;10.192;2023-03-02T06:53:07;6.60;;;4.83;;
40533;SDS011;26233;51.894;10.192;2023-03-02T06:55:34;5.57;;;5.00;;
40533;SDS011;26233;51.894;10.192;2023-03-02T06:58:01;5.80;;;5.10;;
40533;SDS011;26233;51.894;10.192;2023-03-02T07:00:28;8.93;;;7.83;;
40533;SDS011;26233;51.894;10.192;2023-03-02T07:02:55;6.80;;;6.07;;
40533;SDS011;26233;51.894;10.192;2023-03-02T07:05:22;8.00;;;5.93;;
40533;SDS011;26233;51.894;10.192;2023-03-02T07:07:49;11.63;;;8.40;;
40533;SDS011;26233;51.894;10.192;2023-03-02T07:10:18;11.70;;;7.67;;
40533;SDS011;26233;51.894;10.192;2023-03-02T07:12:45;11.83;;;9.70;;
40533;SDS011;26233;51.894;10.192;2023-03-02T07:15:12;10.93;;;8.80;;
40533;SDS011;26233;51.894;10.192;2023-03-02T07:17:40;12.10;;;9.77;;
40533;SDS011;26233;51.894;10.192;2023-03-02T07:20:10;9.07;;;7.73;;
40533;SDS011;26233;51.894;10.192;2023-03-02T07:22:40;7.93;;;6.67;;
40533;SDS011;26233;51.894;10.192;2023-03-02T07:25:08;7.57;;;6.83;;
40533;SDS011;26233;51.894;10.192;2023-03-02T07:27:37;7.30;;;6.60;;
40533;SDS011;26233;51.894;10.192;2023-03-02T07:30:05;6.87;;;6.17;;
40533;SDS011;26233;51.894;10.192;2023-03-02T07:32:34;6.90;;;6.07;;
40533;SDS011;26233;51.894;10.192;2023-03-02T07:35:01;6.93;;;6.00;;
40533;SDS011;26233;51.894;10.192;2023-03-02T07:37:29;5.93;;;5.33;;
40533;SDS011;26233;51.894;10.192;2023-03-02T07:39:56;6.43;;;5.83;;
40533;SDS011;26233;51.894;10.192;2023-03-02T07:42:23;6.63;;;5.93;;
40533;SDS011;26233;51.894;10.192;2023-03-02T07:44:52;6.47;;;5.87;;
40533;SDS011;26233;51.894;10.192;2023-03-02T07:47:19;6.10;;;5.43;;
40533;SDS011;26233;51.894;10.192;2023-03-02T07:49:46;6.07;;;5.57;;
40533;SDS011;26233;51.894;10.192;2023-03-02T07:52:13;7.33;;;6.17;;
40533;SDS011;26233;51.894;10.192;2023-03-02T07:54:40;6.43;;;5.83;;
40533;SDS011;26233;51.894;10.192;2023-03-02T07:57:07;6.40;;;5.80;;
40533;SDS011;26233;51.894;10.192;2023-03-02T07:59:34;7.40;;;5.77;;
40533;SDS011;26233;51.894;10.192;2023-03-02T08:02:03;6.07;;;5.47;;
40533;SDS011;26233;51.894;10.192;2023-03-02T08:04:30;6.17;;;5.57;;
40533;SDS011;26233;51.894;10.192;2023-03-02T08:06:59;6.13;;;5.53;;
40533;SDS011;26233;51.894;10.192;2023-03-02T08:09:26;7.03;;;6.28;;
40533;SDS011;26233;51.894;10.192;2023-03-02T08:11:54;6.40;;;5.80;;
40533;SDS011;26233;51.894;10.192;2023-03-02T08:14:21;7.43;;;6.70;;
40533;SDS011;26233;51.894;10.192;2023-03-02T08:16:48;7.47;;;6.75;;
40533;SDS011;26233;51.894;10.192;2023-03-02T08:19:18;8.35;;;7.53;;
40533;SDS011;26233;51.894;10.192;2023-03-02T08:21:45;8.38;;;7.57;;
40533;SDS011;26233;51.894;10.192;2023-03-02T08:24:12;8.23;;;7.43;;
40533;SDS011;26233;51.894;10.192;2023-03-02T08:26:39;8.57;;;7.75;;
40533;SDS011;26233;51.894;10.192;2023-03-02T08:29:06;8.38;;;7.57;;
40533;SDS011;26233;51.894;10.192;2023-03-02T08:31:33;9.23;;;8.27;;
40533;SDS011;26233;51.894;10.192;2023-03-02T08:34:00;9.05;;;8.18;;
40533;SDS011;26233;51.894;10.192;2023-03-02T08:36:28;7.15;;;6.38;;
40533;SDS011;26233;51.894;10.192;2023-03-02T08:38:55;8.15;;;7.30;;
40533;SDS011;26233;51.894;10.192;2023-03-02T08:41:22;8.43;;;7.63;;
40533;SDS011;26233;51.894;10.192;2023-03-02T08:43:50;9.05;;;7.97;;
40533;SDS011;26233;51.894;10.192;2023-03-02T08:46:18;8.32;;;7.47;;
40533;SDS011;26233;51.894;10.192;2023-03-02T08:48:46;6.88;;;6.28;;
40533;SDS011;26233;51.894;10.192;2023-03-02T08:51:15;7.57;;;6.85;;
40533;SDS011;26233;51.894;10.192;2023-03-02T08:53:46;7.72;;;6.95;;
40533;SDS011;26233;51.894;10.192;2023-03-02T08:56:17;8.75;;;7.80;;
40533;SDS011;26233;51.894;10.192;2023-03-02T08:58:45;8.25;;;7.38;;
40533;SDS011;26233;51.894;10.192;2023-03-02T09:01:13;8.95;;;8.05;;
40533;SDS011;26233;51.894;10.192;2023-03-02T09:03:42;9.35;;;7.68;;
40533;SDS011;26233;51.894;10.192;2023-03-02T09:06:09;9.35;;;8.30;;
40533;SDS011;26233;51.894;10.192;2023-03-02T09:08:36;9.00;;;8.10;;
40533;SDS011;26233;51.894;10.192;2023-03-02T09:11:05;8.60;;;7.80;;
40533;SDS011;26233;51.894;10.192;2023-03-02T09:13:32;8.00;;;7.20;;
40533;SDS011;26233;51.894;10.192;2023-03-02T09:16:00;8.77;;;7.85;;
40533;SDS011;26233;51.894;10.192;2023-03-02T09:18:27;7.63;;;6.90;;
40533;SDS011;26233;51.894;10.192;2023-03-02T09:20:55;8.48;;;7.40;;
40533;SDS011;26233;51.894;10.192;2023-03-02T09:23:23;7.38;;;6.68;;
40533;SDS011;26233;51.894;10.192;2023-03-02T09:25:51;8.07;;;6.93;;
40533;SDS011;26233;51.894;10.192;2023-03-02T09:28:21;7.63;;;6.88;;
40533;SDS011;26233;51.894;10.192;2023-03-02T09:30:49;7.55;;;6.72;;
40533;SDS011;26233;51.894;10.192;2023-03-02T09:33:17;7.10;;;6.40;;
40533;SDS011;26233;51.894;10.192;2023-03-02T09:35:45;6.90;;;6.20;;
40533;SDS011;26233;51.894;10.192;2023-03-02T09:38:12;6.78;;;6.07;;
40533;SDS011;26233;51.894;10.192;2023-03-02T09:40:46;7.00;;;6.30;;
40533;SDS011;26233;51.894;10.192;2023-03-02T09:43:38;6.40;;;5.80;;
40533;SDS011;26233;51.894;10.192;2023-03-02T09:46:17;6.60;;;5.93;;
40533;SDS011;26233;51.894;10.192;2023-03-02T09:48:54;8.07;;;7.28;;
40533;SDS011;26233;51.894;10.192;2023-03-02T09:51:35;8.18;;;7.32;;
40533;SDS011;26233;51.894;10.192;2023-03-02T09:54:10;7.82;;;7.05;;
40533;SDS011;26233;51.894;10.192;2023-03-02T09:56:41;8.13;;;7.32;;
40533;SDS011;26233;51.894;10.192;2023-03-02T09:59:17;8.10;;;7.30;;
40533;SDS011;26233;51.894;10.192;2023-03-02T10:01:51;7.28;;;6.57;;
40533;SDS011;26233;51.894;10.192;2023-03-02T10:04:27;6.38;;;5.82;;
40533;SDS011;26233;51.894;10.192;2023-03-02T10:06:59;5.68;;;5.15;;
40533;SDS011;26233;51.894;10.192;2023-03-02T10:09:36;6.30;;;5.72;;
40533;SDS011;26233;51.894;10.192;2023-03-02T10:12:13;5.63;;;5.13;;
40533;SDS011;26233;51.894;10.192;2023-03-02T10:15:04;4.78;;;4.38;;
40533;SDS011;26233;51.894;10.192;2023-03-02T10:17:43;5.13;;;4.47;;
40533;SDS011;26233;51.894;10.192;2023-03-02T10:20:23;5.38;;;4.70;;
40533;SDS011;26233;51.894;10.192;2023-03-02T10:22:58;5.07;;;4.38;;
40533;SDS011;26233;51.894;10.192;2023-03-02T10:25:40;4.60;;;4.20;;
40533;SDS011;26233;51.894;10.192;2023-03-02T10:28:14;5.05;;;4.55;;
40533;SDS011;26233;51.894;10.192;2023-03-02T10:30:48;5.00;;;4.50;;
40533;SDS011;26233;51.894;10.192;2023-03-02T10:33:19;4.65;;;4.25;;
40533;SDS011;26233;51.894;10.192;2023-03-02T10:35:49;5.10;;;4.70;;
40533;SDS011;26233;51.894;10.192;2023-03-02T10:38:18;4.75;;;4.35;;
40533;SDS011;26233;51.894;10.192;2023-03-02T10:40:48;5.70;;;5.20;;
40533;SDS011;26233;51.894;10.192;2023-03-02T10:43:24;4.93;;;4.50;;
40533;SDS011;26233;51.894;10.192;2023-03-02T10:45:58;4.75;;;4.35;;
40533;SDS011;26233;51.894;10.192;2023-03-02T10:48:27;4.90;;;4.47;;
40533;SDS011;26233;51.894;10.192;2023-03-02T10:50:55;4.85;;;4.35;;
40533;SDS011;26233;51.894;10.192;2023-03-02T10:53:24;5.15;;;4.70;;
40533;SDS011;26233;51.894;10.192;2023-03-02T10:55:53;5.45;;;4.95;;
40533;SDS011;26233;51.894;10.192;2023-03-02T10:58:21;5.25;;;4.75;;
40533;SDS011;26233;51.894;10.192;2023-03-02T11:00:54;4.93;;;4.53;;
40533;SDS011;26233;51.894;10.192;2023-03-02T11:03:24;4.88;;;4.40;;
40533;SDS011;26233;51.894;10.192;2023-03-02T11:05:53;5.30;;;4.85;;
40533;SDS011;26233;51.894;10.192;2023-03-02T11:08:21;5.13;;;4.72;;
40533;SDS011;26233;51.894;10.192;2023-03-02T11:10:51;5.40;;;4.90;;
40533;SDS011;26233;51.894;10.192;2023-03-02T11:13:23;4.68;;;4.28;;
40533;SDS011;26233;51.894;10.192;2023-03-02T11:15:53;6.15;;;5.55;;
40533;SDS011;26233;51.894;10.192;2023-03-02T11:18:25;5.82;;;5.32;;
40533;SDS011;26233;51.894;10.192;2023-03-02T11:20:58;6.53;;;5.90;;
40533;SDS011;26233;51.894;10.192;2023-03-02T11:23:32;6.03;;;5.53;;
40533;SDS011;26233;51.894;10.192;2023-03-02T11:26:08;6.65;;;6.05;;
40533;SDS011;26233;51.894;10.192;2023-03-02T11:28:47;6.22;;;5.68;;
40533;SDS011;26233;51.894;10.192;2023-03-02T11:31:28;7.30;;;6.65;;
40533;SDS011;26233;51.894;10.192;2023-03-02T11:36:59;6.47;;;5.88;;
40533;SDS011;26233;51.894;10.192;2023-03-02T11:39:51;6.05;;;5.55;;
40533;SDS011;26233;51.894;10.192;2023-03-02T11:42:28;6.13;;;5.63;;
40533;SDS011;26233;51.894;10.192;2023-03-02T11:44:59;7.07;;;5.97;;
40533;SDS011;26233;51.894;10.192;2023-03-02T11:47:31;6.18;;;5.68;;
40533;SDS011;26233;51.894;10.192;2023-03-02T11:50:01;6.30;;;5.70;;
40533;SDS011;26233;51.894;10.192;2023-03-02T11:52:31;6.32;;;5.72;;
40533;SDS011;26233;51.894;10.192;2023-03-02T11:55:04;6.13;;;5.60;;
40533;SDS011;26233;51.894;10.192;2023-03-02T11:57:41;5.72;;;5.22;;
40533;SDS011;26233;51.894;10.192;2023-03-02T12:00:26;5.88;;;5.38;;
40533;SDS011;26233;51.894;10.192;2023-03-02T12:02:57;6.28;;;5.70;;
40533;SDS011;26233;51.894;10.192;2023-03-02T12:05:31;6.30;;;5.78;;
40533;SDS011;26233;51.894;10.192;2023-03-02T12:08:02;6.43;;;5.65;;
40533;SDS011;26233;51.894;10.192;2023-03-02T12:10:32;6.30;;;5.78;;
40533;SDS011;26233;51.894;10.192;2023-03-02T12:13:12;6.55;;;5.95;;
40533;SDS011;26233;51.894;10.192;2023-03-02T12:15:45;6.88;;;6.25;;
40533;SDS011;26233;51.894;10.192;2023-03-02T12:21:14;6.55;;;5.95;;
40533;SDS011;26233;51.894;10.192;2023-03-02T12:23:58;6.60;;;6.00;;
40533;SDS011;26233;51.894;10.192;2023-03-02T12:26:33;7.47;;;6.80;;
40533;SDS011;26233;51.894;10.192;2023-03-02T12:29:03;6.57;;;5.97;;
40533;SDS011;26233;51.894;10.192;2023-03-02T12:31:48;7.15;;;6.55;;
40533;SDS011;26233;51.894;10.192;2023-03-02T12:34:33;7.28;;;6.57;;
40533;SDS011;26233;51.894;10.192;2023-03-02T12:37:05;8.05;;;7.35;;
40533;SDS011;26233;51.894;10.192;2023-03-02T12:43:04;6.88;;;6.28;;
40533;SDS011;26233;51.894;10.192;2023-03-02T12:45:48;7.22;;;6.63;;
40533;SDS011;26233;51.894;10.192;2023-03-02T12:48:39;7.07;;;6.38;;
40533;SDS011;26233;51.894;10.192;2023-03-02T12:51:12;7.50;;;6.70;;
40533;SDS011;26233;51.894;10.192;2023-03-02T12:53:46;7.22;;;6.63;;
40533;SDS011;26233;51.894;10.192;2023-03-02T12:56:20;7.13;;;6.53;;
40533;SDS011;26233;51.894;10.192;2023-03-02T12:58:48;7.30;;;6.60;;
40533;SDS011;26233;51.894;10.192;2023-03-02T13:01:19;7.47;;;6.70;;
40533;SDS011;26233;51.894;10.192;2023-03-02T13:03:48;7.30;;;6.65;;
40533;SDS011;26233;51.894;10.192;2023-03-02T13:06:17;7.53;;;6.82;;
40533;SDS011;26233;51.894;10.192;2023-03-02T13:08:47;7.35;;;6.65;;
40533;SDS011;26233;51.894;10.192;2023-03-02T13:11:19;7.10;;;6.40;;
40533;SDS011;26233;51.894;10.192;2023-03-02T13:13:52;7.47;;;6.78;;
40533;SDS011;26233;51.894;10.192;2023-03-02T13:16:20;7.32;;;6.63;;
40533;SDS011;26233;51.894;10.192;2023-03-02T13:18:49;7.50;;;6.88;;
40533;SDS011;26233;51.894;10.192;2023-03-02T13:21:21;7.70;;;6.90;;
40533;SDS011;26233;51.894;10.192;2023-03-02T13:23:59;7.55;;;6.85;;
40533;SDS011;26233;51.894;10.192;2023-03-02T13:26:27;7.00;;;6.30;;
40533;SDS011;26233;51.894;10.192;2023-03-02T13:29:00;7.63;;;6.93;;
40533;SDS011;26233;51.894;10.192;2023-03-02T13:31:30;7.13;;;6.43;;
40533;SDS011;26233;51.894;10.192;2023-03-02T13:33:58;7.05;;;6.40;;
40533;SDS011;26233;51.894;10.192;2023-03-02T13:36:27;6.90;;;6.20;;
40533;SDS011;26233;51.894;10.192;2023-03-02T13:39:00;7.53;;;6.82;;
40533;SDS011;26233;51.894;10.192;2023-03-02T13:41:31;7.18;;;6.53;;
40533;SDS011;26233;51.894;10.192;2023-03-02T13:44:10;8.25;;;7.47;;
40533;SDS011;26233;51.894;10.192;2023-03-02T13:46:43;8.52;;;7.22;;
40533;SDS011;26233;51.894;10.192;2023-03-02T13:49:11;7.50;;;6.90;;
40533;SDS011;26233;51.894;10.192;2023-03-02T13:51:47;7.60;;;6.88;;
40533;SDS011;26233;51.894;10.192;2023-03-02T13:54:18;8.63;;;7.20;;
40533;SDS011;26233;51.894;10.192;2023-03-02T13:56:48;8.20;;;7.40;;
40533;SDS011;26233;51.894;10.192;2023-03-02T13:59:16;7.28;;;6.68;;
40533;SDS011;26233;51.894;10.192;2023-03-02T14:01:45;7.45;;;6.63;;
40533;SDS011;26233;51.894;10.192;2023-03-02T14:04:13;7.35;;;6.65;;
40533;SDS011;26233;51.894;10.192;2023-03-02T14:06:43;8.35;;;7.50;;
40533;SDS011;26233;51.894;10.192;2023-03-02T14:09:10;8.23;;;7.43;;
40533;SDS011;26233;51.894;10.192;2023-03-02T14:11:40;8.77;;;7.95;;
40533;SDS011;26233;51.894;10.192;2023-03-02T14:14:10;8.02;;;7.25;;
40533;SDS011;26233;51.894;10.192;2023-03-02T14:16:42;7.75;;;6.95;;
40533;SDS011;26233;51.894;10.192;2023-03-02T14:19:09;8.80;;;7.93;;
40533;SDS011;26233;51.894;10.192;2023-03-02T14:21:40;9.48;;;8.52;;
40533;SDS011;26233;51.894;10.192;2023-03-02T14:24:08;8.05;;;7.35;;
40533;SDS011;26233;51.894;10.192;2023-03-02T14:26:36;7.88;;;6.97;;
40533;SDS011;26233;51.894;10.192;2023-03-02T14:29:14;8.43;;;7.40;;
40533;SDS011;26233;51.894;10.192;2023-03-02T14:31:48;7.95;;;7.15;;
40533;SDS011;26233;51.894;10.192;2023-03-02T14:34:16;8.10;;;7.40;;
40533;SDS011;26233;51.894;10.192;2023-03-02T14:36:45;8.88;;;8.05;;
40533;SDS011;26233;51.894;10.192;2023-03-02T14:39:18;8.73;;;7.88;;
40533;SDS011;26233;51.894;10.192;2023-03-02T14:41:49;7.95;;;7.22;;
40533;SDS011;26233;51.894;10.192;2023-03-02T14:44:18;8.40;;;7.60;;
40533;SDS011;26233;51.894;10.192;2023-03-02T14:46:45;9.02;;;8.13;;
40533;SDS011;26233;51.894;10.192;2023-03-02T14:49:15;8.82;;;8.02;;
40533;SDS011;26233;51.894;10.192;2023-03-02T14:51:42;10.50;;;9.45;;
40533;SDS011;26233;51.894;10.192;2023-03-02T14:54:18;13.48;;;12.07;;
40533;SDS011;26233;51.894;10.192;2023-03-02T14:56:49;17.35;;;15.55;;
40533;SDS011;26233;51.894;10.192;2023-03-02T14:59:16;17.35;;;15.70;;
40533;SDS011;26233;51.894;10.192;2023-03-02T15:01:43;18.92;;;16.95;;